Terminal Aerodrome Forecast
Issued by NWS

Home | Current Version | Previous Version | Text Only | Print | Product List | Glossary On
Versions: 1 2 3 4 5 6 7 8 9 10 11 12 13 14 15 16 17
000
FTUS46 KPDT 222300
TAFBDN
TAF
KBDN 222320Z 2300/2324 20010KT P6SM VCTS BKN050CB BKN070
      TEMPO 2300/2304 VRB30G40KT 5SM -TSRA BKN030CB BKN050
     FM230400 32008KT P6SM -RA BKN050 OVC070
     FM230800 20008KT P6SM BKN100
     FM232000 32010KT P6SM SCT050 BKN100
      TEMPO 2320/2324 -TSRA BKN050CB=

USA.gov is the U.S. government's official web portal to all federal, state and local government web resources and services.